createdAt,value
2018-01-03T00:00:00.580Z,7.22
2018-01-03T00:01:00.605Z,7.19
2018-01-03T00:02:00.619Z,7.30
2018-01-03T00:03:00.641Z,7.19
2018-01-03T00:04:00.655Z,7.15
2018-01-03T00:05:00.680Z,7.23
2018-01-03T00:06:00.700Z,7.22
2018-01-03T00:07:00.712Z,7.18
2018-01-03T00:08:00.736Z,7.19
2018-01-03T00:09:00.752Z,7.19
2018-01-03T00:10:00.776Z,7.18
2018-01-03T00:11:00.789Z,7.27
2018-01-03T00:12:00.815Z,7.22
2018-01-03T00:13:00.826Z,7.22
2018-01-03T00:14:00.846Z,7.18
2018-01-03T00:15:00.869Z,7.19
2018-01-03T00:16:00.890Z,7.23
2018-01-03T00:17:00.902Z,7.21
2018-01-03T00:18:00.923Z,7.19
2018-01-03T00:19:00.946Z,7.19
2018-01-03T00:20:00.965Z,7.21
2018-01-03T00:21:00.979Z,7.16
2018-01-03T00:22:00.998Z,7.22
2018-01-03T00:23:01.024Z,7.18
2018-01-03T00:24:01.035Z,7.22
2018-01-03T00:25:01.062Z,7.19
2018-01-03T00:26:01.074Z,7.21
2018-01-03T00:27:01.099Z,7.23
2018-01-03T00:28:01.112Z,7.31
2018-01-03T00:29:01.137Z,7.27
2018-01-03T00:30:01.150Z,7.27
2018-01-03T00:31:01.174Z,7.31
2018-01-03T00:32:01.193Z,7.23
2018-01-03T00:33:01.207Z,7.31
2018-01-03T00:34:01.225Z,7.23
2018-01-03T00:35:01.252Z,7.31
2018-01-03T00:36:01.268Z,7.34
2018-01-03T00:37:01.282Z,7.31
2018-01-03T00:38:01.309Z,7.39
2018-01-03T00:39:01.320Z,7.40
2018-01-03T00:40:01.341Z,7.33
2018-01-03T00:41:01.365Z,7.37
2018-01-03T00:42:01.385Z,7.37
2018-01-03T00:43:01.396Z,7.36
2018-01-03T00:44:01.417Z,7.37
2018-01-03T00:45:01.441Z,7.48
2018-01-03T00:46:01.460Z,7.48
2018-01-03T00:47:01.473Z,7.39
2018-01-03T00:48:01.497Z,7.49
2018-01-03T00:49:01.512Z,7.48
2018-01-03T00:50:01.536Z,7.52
2018-01-03T00:51:01.551Z,7.51
2018-01-03T00:52:01.575Z,7.61
2018-01-03T00:53:01.591Z,7.59
2018-01-03T00:54:01.608Z,7.56
2018-01-03T00:55:01.631Z,7.52
2018-01-03T00:56:01.651Z,7.55
2018-01-03T00:57:01.664Z,7.52
2018-01-03T00:58:01.684Z,7.61
2018-01-03T00:59:01.708Z,7.64
2018-01-03T01:00:01.727Z,7.61
2018-01-03T01:01:01.743Z,7.58
2018-01-03T01:02:01.761Z,7.52
2018-01-03T01:03:01.784Z,7.54
2018-01-03T01:04:01.804Z,7.58
2018-01-03T01:05:01.818Z,7.52
2018-01-03T01:06:01.837Z,7.52
2018-01-03T01:07:01.861Z,7.63
2018-01-03T01:08:01.882Z,7.55
2018-01-03T01:09:01.894Z,7.56
2018-01-03T01:10:01.914Z,7.68
2018-01-03T01:11:01.936Z,7.55
2018-01-03T01:12:01.957Z,7.67
2018-01-03T01:13:01.971Z,7.64
2018-01-03T01:14:01.990Z,7.70
2018-01-03T01:15:02.016Z,7.63
2018-01-03T01:16:02.034Z,7.70
2018-01-03T01:17:02.049Z,7.75
2018-01-03T01:18:02.072Z,7.68
2018-01-03T01:19:02.086Z,7.73
2018-01-03T01:20:02.111Z,7.74
2018-01-03T01:21:02.125Z,7.80
2018-01-03T01:22:02.150Z,7.75
2018-01-03T01:23:02.163Z,7.88
2018-01-03T01:24:02.188Z,7.88
2018-01-03T01:25:02.201Z,7.86
2018-01-03T01:26:02.227Z,7.88
2018-01-03T01:27:02.239Z,7.80
2018-01-03T01:28:02.264Z,7.85
2018-01-03T01:29:02.278Z,7.86
2018-01-03T01:30:02.320Z,7.91
2018-01-03T01:31:02.316Z,7.91
2018-01-03T01:32:02.341Z,7.86
2018-01-03T01:33:02.355Z,7.92
2018-01-03T01:34:02.376Z,7.95
2018-01-03T01:35:02.399Z,8.03
2018-01-03T01:36:02.413Z,7.99
2018-01-03T01:37:02.439Z,8.04
2018-01-03T01:38:02.452Z,7.99
2018-01-03T01:39:02.476Z,8.01
2018-01-03T01:40:02.490Z,7.98
2018-01-03T01:41:02.514Z,8.01
2018-01-03T01:42:02.529Z,7.96
2018-01-03T01:43:02.554Z,8.03
2018-01-03T01:44:02.567Z,8.04
2018-01-03T01:45:02.593Z,7.99
2018-01-03T01:46:02.606Z,8.03
2018-01-03T01:47:02.631Z,8.01
2018-01-03T01:48:02.645Z,8.01
2018-01-03T01:49:02.670Z,7.95
2018-01-03T01:50:02.684Z,7.96
2018-01-03T01:51:02.708Z,8.04
2018-01-03T01:52:02.728Z,8.03
2018-01-03T01:53:02.742Z,7.98
2018-01-03T01:54:02.765Z,8.10
2018-01-03T01:55:02.787Z,8.01
2018-01-03T01:56:02.806Z,8.07
2018-01-03T01:57:02.820Z,8.03
2018-01-03T01:58:02.840Z,8.03
2018-01-03T01:59:02.864Z,8.03
2018-01-03T02:00:02.883Z,7.99
2018-01-03T02:01:02.897Z,8.11
2018-01-03T02:02:02.916Z,8.17
2018-01-03T02:03:02.941Z,8.16
2018-01-03T02:04:02.961Z,8.17
2018-01-03T02:05:02.975Z,8.16
2018-01-03T02:06:03.007Z,8.25
2018-01-03T02:07:03.015Z,8.21
2018-01-03T02:08:03.040Z,8.11
2018-01-03T02:09:03.053Z,8.14
2018-01-03T02:10:03.078Z,8.16
2018-01-03T02:11:03.091Z,8.11
2018-01-03T02:12:03.116Z,8.21
2018-01-03T02:13:03.129Z,8.17
2018-01-03T02:14:03.150Z,8.16
2018-01-03T02:15:03.174Z,8.17
2018-01-03T02:16:03.188Z,8.22
2018-01-03T02:17:03.214Z,8.17
2018-01-03T02:18:03.226Z,8.16
2018-01-03T02:19:03.254Z,8.14
2018-01-03T02:20:03.268Z,8.07
2018-01-03T02:21:03.292Z,8.13
2018-01-03T02:22:03.311Z,8.21
2018-01-03T02:23:03.324Z,8.16
2018-01-03T02:24:03.343Z,8.10
2018-01-03T02:25:03.369Z,8.04
2018-01-03T02:26:03.390Z,8.17
2018-01-03T02:27:03.402Z,8.14
2018-01-03T02:28:03.423Z,8.17
2018-01-03T02:29:03.446Z,8.19
2018-01-03T02:30:03.467Z,8.11
2018-01-03T02:31:03.479Z,8.22
2018-01-03T02:32:03.505Z,8.17
2018-01-03T02:33:03.519Z,8.17
2018-01-03T02:34:03.544Z,8.25
2018-01-03T02:35:03.556Z,8.25
2018-01-03T02:36:03.581Z,8.24
2018-01-03T02:37:03.596Z,8.29
2018-01-03T02:38:03.622Z,8.35
2018-01-03T02:39:03.635Z,8.26
2018-01-03T02:40:03.654Z,8.32
2018-01-03T02:41:03.679Z,8.29
2018-01-03T02:42:03.699Z,8.39
2018-01-03T02:43:03.714Z,8.40
2018-01-03T02:44:03.731Z,8.43
2018-01-03T02:45:03.757Z,8.36
2018-01-03T02:46:03.771Z,8.36
2018-01-03T02:47:03.796Z,8.50
2018-01-03T02:48:03.814Z,8.49
2018-01-03T02:49:03.829Z,8.52
2018-01-03T02:50:03.849Z,8.49
2018-01-03T02:51:03.873Z,8.47
2018-01-03T02:52:03.894Z,8.53
2018-01-03T02:53:03.907Z,8.43
2018-01-03T02:54:03.926Z,8.36
2018-01-03T02:55:03.950Z,8.39
2018-01-03T02:56:03.968Z,8.34
2018-01-03T02:57:03.990Z,8.32
2018-01-03T02:58:04.002Z,8.34
2018-01-03T02:59:04.028Z,8.35
2018-01-03T03:00:04.042Z,8.39
2018-01-03T03:01:04.067Z,8.34
2018-01-03T03:02:04.087Z,8.42
2018-01-03T03:03:04.101Z,8.39
2018-01-03T03:04:04.119Z,8.39
2018-01-03T03:05:04.144Z,8.34
2018-01-03T03:06:04.163Z,8.36
2018-01-03T03:07:04.177Z,8.29
2018-01-03T03:08:04.196Z,8.31
2018-01-03T03:09:04.223Z,8.35
2018-01-03T03:10:04.236Z,8.28
2018-01-03T03:11:04.261Z,8.29
2018-01-03T03:12:04.274Z,8.31
2018-01-03T03:13:04.299Z,8.35
2018-01-03T03:14:04.314Z,8.32
2018-01-03T03:15:04.337Z,8.32
2018-01-03T03:16:04.351Z,8.32
2018-01-03T03:17:04.377Z,8.31
2018-01-03T03:18:04.390Z,8.34
2018-01-03T03:19:04.414Z,8.35
2018-01-03T03:20:04.429Z,8.42
2018-01-03T03:21:04.455Z,8.36
2018-01-03T03:22:04.468Z,8.44
2018-01-03T03:23:04.492Z,8.47
2018-01-03T03:24:04.506Z,8.49
2018-01-03T03:25:04.532Z,8.44
2018-01-03T03:26:04.556Z,8.50
2018-01-03T03:27:04.563Z,8.52
2018-01-03T03:28:04.590Z,8.57
2018-01-03T03:29:04.604Z,8.42
2018-01-03T03:30:04.628Z,8.52
2018-01-03T03:31:04.644Z,8.53
2018-01-03T03:32:04.667Z,8.50
2018-01-03T03:33:04.680Z,8.52
2018-01-03T03:34:04.705Z,8.43
2018-01-03T03:35:04.719Z,8.61
2018-01-03T03:36:04.744Z,8.44
2018-01-03T03:37:04.758Z,8.53
2018-01-03T03:38:04.782Z,8.77
2018-01-03T03:39:04.796Z,8.79
2018-01-03T03:40:04.822Z,8.89
2018-01-03T03:41:04.834Z,8.94
2018-01-03T03:42:04.855Z,9.03
2018-01-03T03:43:04.880Z,9.14
2018-01-03T03:44:04.901Z,9.09
2018-01-03T03:45:04.911Z,9.21
2018-01-03T03:46:04.932Z,9.26
2018-01-03T03:47:04.957Z,9.26
2018-01-03T03:48:04.977Z,9.38
2018-01-03T03:49:04.991Z,9.32
2018-01-03T03:50:05.011Z,9.38
2018-01-03T03:51:05.034Z,9.38
2018-01-03T03:52:05.054Z,9.41
2018-01-03T03:53:05.069Z,9.41
2018-01-03T03:54:05.089Z,9.42
2018-01-03T03:55:05.113Z,9.42
2018-01-03T03:56:05.132Z,9.42
2018-01-03T03:57:05.148Z,9.48
2018-01-03T03:58:05.173Z,9.55
2018-01-03T03:59:05.186Z,9.63
2018-01-03T04:00:05.206Z,9.50
2018-01-03T04:01:05.231Z,9.57
2018-01-03T04:02:05.251Z,9.42
2018-01-03T04:03:05.266Z,9.45
2018-01-03T04:04:05.285Z,9.52
2018-01-03T04:05:05.311Z,9.41
2018-01-03T04:06:05.333Z,9.52
2018-01-03T04:07:05.344Z,9.57
2018-01-03T04:08:05.365Z,9.59
2018-01-03T04:09:05.390Z,9.53
2018-01-03T04:10:05.411Z,9.50
2018-01-03T04:11:05.423Z,9.59
2018-01-03T04:12:05.444Z,9.53
2018-01-03T04:13:05.470Z,9.59
2018-01-03T04:14:05.489Z,9.50
2018-01-03T04:15:05.503Z,9.44
2018-01-03T04:16:05.533Z,9.47
2018-01-03T04:17:05.546Z,9.47
2018-01-03T04:18:05.570Z,9.44
2018-01-03T04:19:05.596Z,9.45
2018-01-03T04:20:05.645Z,9.45
2018-01-03T04:21:05.622Z,9.41
2018-01-03T04:22:05.649Z,9.38
2018-01-03T04:23:05.668Z,9.29
2018-01-03T04:24:05.684Z,9.30
2018-01-03T04:25:05.709Z,9.37
2018-01-03T04:26:05.724Z,9.30
2018-01-03T04:27:05.749Z,9.27
2018-01-03T04:28:05.769Z,9.34
2018-01-03T04:29:05.793Z,9.39
2018-01-03T04:30:05.805Z,9.32
2018-01-03T04:31:05.829Z,9.30
2018-01-03T04:32:05.850Z,9.30
2018-01-03T04:33:05.864Z,9.32
2018-01-03T04:34:05.884Z,9.48
2018-01-03T04:35:05.909Z,9.72
2018-01-03T04:36:05.934Z,10.21
2018-01-03T04:37:05.945Z,10.31
2018-01-03T04:38:05.965Z,10.33
2018-01-03T04:39:06.030Z,10.36
2018-01-03T04:40:06.005Z,10.42
2018-01-03T04:41:06.025Z,10.47
2018-01-03T04:42:06.051Z,10.51
2018-01-03T04:43:06.066Z,10.47
2018-01-03T04:44:06.087Z,10.42
2018-01-03T04:45:06.112Z,10.77
2018-01-03T04:46:06.127Z,10.63
2018-01-03T04:47:06.155Z,10.59
2018-01-03T04:48:06.173Z,10.57
2018-01-03T04:49:06.187Z,10.49
2018-01-03T04:50:06.213Z,10.54
2018-01-03T04:51:06.233Z,10.54
2018-01-03T04:52:06.254Z,10.55
2018-01-03T04:53:06.268Z,10.61
2018-01-03T04:54:06.289Z,10.61
2018-01-03T04:55:06.316Z,10.65
2018-01-03T04:56:06.336Z,10.59
2018-01-03T04:57:06.370Z,10.58
2018-01-03T04:58:06.370Z,10.63
2018-01-03T04:59:06.395Z,10.59
2018-01-03T05:00:06.416Z,10.49
2018-01-03T05:01:06.431Z,10.55
2018-01-03T05:02:06.452Z,10.39
2018-01-03T05:03:06.476Z,10.38
2018-01-03T05:04:06.493Z,10.47
2018-01-03T05:05:06.519Z,10.39
2018-01-03T05:06:06.533Z,10.46
2018-01-03T05:07:06.559Z,10.42
2018-01-03T05:08:06.573Z,10.47
2018-01-03T05:09:06.600Z,10.44
2018-01-03T05:10:06.621Z,10.44
2018-01-03T05:11:06.635Z,10.36
2018-01-03T05:12:06.656Z,10.39
2018-01-03T05:13:06.676Z,10.31
2018-01-03T05:14:06.703Z,10.33
2018-01-03T05:15:06.722Z,10.36
2018-01-03T05:16:06.737Z,10.38
2018-01-03T05:17:06.763Z,10.28
2018-01-03T05:18:06.779Z,10.31
2018-01-03T05:19:06.803Z,10.25
2018-01-03T05:20:06.819Z,10.26
2018-01-03T05:21:06.844Z,10.21
2018-01-03T05:22:06.860Z,10.26
2018-01-03T05:23:06.886Z,10.17
2018-01-03T05:24:06.901Z,10.25
2018-01-03T05:25:06.926Z,10.21
2018-01-03T05:26:06.947Z,10.25
2018-01-03T05:27:06.962Z,10.26
2018-01-03T05:28:06.989Z,10.31
2018-01-03T05:29:07.009Z,10.26
2018-01-03T05:30:07.031Z,10.23
2018-01-03T05:31:07.050Z,10.25
2018-01-03T05:32:07.071Z,10.20
2018-01-03T05:33:07.088Z,10.17
2018-01-03T05:34:07.113Z,10.18
2018-01-03T05:35:07.131Z,10.15
2018-01-03T05:36:07.152Z,10.13
2018-01-03T05:37:07.168Z,10.14
2018-01-03T05:38:07.195Z,10.11
2018-01-03T05:39:07.208Z,10.13
2018-01-03T05:40:07.239Z,10.15
2018-01-03T05:41:07.256Z,10.18
2018-01-03T05:42:07.272Z,10.13
2018-01-03T05:43:07.296Z,10.13
2018-01-03T05:44:07.311Z,10.18
2018-01-03T05:45:07.332Z,10.20
2018-01-03T05:46:07.352Z,10.20
2018-01-03T05:47:07.378Z,10.15
2018-01-03T05:48:07.396Z,10.17
2018-01-03T05:49:07.471Z,10.18
2018-01-03T05:50:07.441Z,10.20
2018-01-03T05:51:07.455Z,10.11
2018-01-03T05:52:07.476Z,10.05
2018-01-03T05:53:07.502Z,10.02
2018-01-03T05:54:07.523Z,10.14
2018-01-03T05:55:07.538Z,10.08
2018-01-03T05:56:07.557Z,10.14
2018-01-03T05:57:07.584Z,10.11
2018-01-03T05:58:07.600Z,10.15
2018-01-03T05:59:07.625Z,10.15
2018-01-03T06:00:07.645Z,10.07
2018-01-03T06:01:07.670Z,10.10
2018-01-03T06:02:07.682Z,10.14
2018-01-03T06:03:07.701Z,10.15
2018-01-03T06:04:07.728Z,10.14
2018-01-03T06:05:07.744Z,10.14
2018-01-03T06:06:07.765Z,10.15
2018-01-03T06:07:07.789Z,10.18
2018-01-03T06:08:07.810Z,10.15
2018-01-03T06:09:07.825Z,10.17
2018-01-03T06:10:07.846Z,10.15
2018-01-03T06:11:07.871Z,10.21
2018-01-03T06:12:07.891Z,10.20
2018-01-03T06:13:07.907Z,10.23
2018-01-03T06:14:07.933Z,10.14
2018-01-03T06:15:07.947Z,10.11
2018-01-03T06:16:07.968Z,10.18
2018-01-03T06:17:07.989Z,10.17
2018-01-03T06:18:08.015Z,10.02
2018-01-03T06:19:08.036Z,10.10
2018-01-03T06:20:08.050Z,9.99
2018-01-03T06:21:08.075Z,10.03
2018-01-03T06:22:08.093Z,10.00
2018-01-03T06:23:08.116Z,10.03
2018-01-03T06:24:08.138Z,9.98
2018-01-03T06:25:08.154Z,10.08
2018-01-03T06:26:08.173Z,10.17
2018-01-03T06:27:08.199Z,10.07
2018-01-03T06:28:08.221Z,9.90
2018-01-03T06:29:08.235Z,10.08
2018-01-03T06:30:08.258Z,10.00
2018-01-03T06:31:08.280Z,9.92
2018-01-03T06:32:08.301Z,9.92
2018-01-03T06:33:08.316Z,9.90
2018-01-03T06:34:08.338Z,9.92
2018-01-03T06:35:08.362Z,9.92
2018-01-03T06:36:08.423Z,9.93
2018-01-03T06:37:08.399Z,9.95
2018-01-03T06:38:08.426Z,9.95
2018-01-03T06:39:08.440Z,9.92
2018-01-03T06:40:08.459Z,9.96
2018-01-03T06:41:08.485Z,9.84
2018-01-03T06:42:08.507Z,9.85
2018-01-03T06:43:08.527Z,10.03
2018-01-03T06:44:08.541Z,10.02
2018-01-03T06:45:08.568Z,10.05
2018-01-03T06:46:08.588Z,9.98
2018-01-03T06:47:08.601Z,9.96
2018-01-03T06:48:08.623Z,9.85
2018-01-03T06:49:08.650Z,9.84
2018-01-03T06:50:08.670Z,9.92
2018-01-03T06:51:08.685Z,9.84
2018-01-03T06:52:08.705Z,9.96
2018-01-03T06:53:08.736Z,9.89
2018-01-03T06:54:08.748Z,9.84
2018-01-03T06:55:08.771Z,9.90
2018-01-03T06:56:08.785Z,9.82
2018-01-03T06:57:08.812Z,9.85
2018-01-03T06:58:08.827Z,9.84
2018-01-03T06:59:08.853Z,9.74
2018-01-03T07:00:08.868Z,9.77
2018-01-03T07:01:08.894Z,9.70
2018-01-03T07:02:08.909Z,9.72
2018-01-03T07:03:08.934Z,9.93
2018-01-03T07:04:08.949Z,9.78
2018-01-03T07:05:08.976Z,9.77
2018-01-03T07:06:08.991Z,9.80
2018-01-03T07:07:09.015Z,9.78
2018-01-03T07:08:09.030Z,9.77
2018-01-03T07:09:09.055Z,9.75
2018-01-03T07:10:09.077Z,9.71
2018-01-03T07:11:09.092Z,9.71
2018-01-03T07:12:09.116Z,9.59
2018-01-03T07:13:09.132Z,9.70
2018-01-03T07:14:09.159Z,9.71
2018-01-03T07:15:09.172Z,9.62
2018-01-03T07:16:09.199Z,9.71
2018-01-03T07:17:09.213Z,9.63
2018-01-03T07:18:09.240Z,9.62
2018-01-03T07:19:09.253Z,9.56
2018-01-03T07:20:09.279Z,9.63
2018-01-03T07:21:09.295Z,9.70
2018-01-03T07:22:09.320Z,9.55
2018-01-03T07:23:09.335Z,9.60
2018-01-03T07:24:09.360Z,9.63
2018-01-03T07:25:09.374Z,9.66
2018-01-03T07:26:09.401Z,9.71
2018-01-03T07:27:09.415Z,9.75
2018-01-03T07:28:09.435Z,9.75
2018-01-03T07:29:09.461Z,9.74
2018-01-03T07:30:09.499Z,9.72
2018-01-03T07:31:09.496Z,9.71
2018-01-03T07:32:09.515Z,9.75
2018-01-03T07:33:09.544Z,9.74
2018-01-03T07:34:09.556Z,9.63
2018-01-03T07:35:09.582Z,9.66
2018-01-03T07:36:09.601Z,9.72
2018-01-03T07:37:09.616Z,9.70
2018-01-03T07:38:09.636Z,9.63
2018-01-03T07:39:09.662Z,9.74
2018-01-03T07:40:09.682Z,9.84
2018-01-03T07:41:09.697Z,9.80
2018-01-03T07:42:09.717Z,9.72
2018-01-03T07:43:09.742Z,9.74
2018-01-03T07:44:09.756Z,9.72
2018-01-03T07:45:09.782Z,9.66
2018-01-03T07:46:09.797Z,9.64
2018-01-03T07:47:09.823Z,9.56
2018-01-03T07:48:09.837Z,9.53
2018-01-03T07:49:09.867Z,9.26
2018-01-03T07:50:09.884Z,9.01
2018-01-03T07:51:09.897Z,8.89
2018-01-03T07:52:09.917Z,8.86
2018-01-03T07:53:09.943Z,8.69
2018-01-03T07:54:09.963Z,8.60
2018-01-03T07:55:09.978Z,8.50
2018-01-03T07:56:09.998Z,8.57
2018-01-03T07:57:10.024Z,8.46
2018-01-03T07:58:10.048Z,8.46
2018-01-03T07:59:10.059Z,8.49
2018-01-03T08:00:10.085Z,8.40
2018-01-03T08:01:10.098Z,8.43
2018-01-03T08:02:10.124Z,8.44
2018-01-03T08:03:10.138Z,8.44
2018-01-03T08:04:10.214Z,8.36
2018-01-03T08:05:10.178Z,8.26
2018-01-03T08:06:10.198Z,8.17
2018-01-03T08:07:10.223Z,8.01
2018-01-03T08:08:10.238Z,7.92
2018-01-03T08:09:10.265Z,7.82
2018-01-03T08:10:10.278Z,7.78
2018-01-03T08:11:10.303Z,7.77
2018-01-03T08:12:10.317Z,7.75
2018-01-03T08:13:10.345Z,7.75
2018-01-03T08:14:10.362Z,7.75
2018-01-03T08:15:10.378Z,7.71
2018-01-03T08:16:10.396Z,7.68
2018-01-03T08:17:10.422Z,7.68
2018-01-03T08:18:10.442Z,7.59
2018-01-03T08:19:10.455Z,7.63
2018-01-03T08:20:10.474Z,7.71
2018-01-03T08:21:10.500Z,7.67
2018-01-03T08:22:10.520Z,7.74
2018-01-03T08:23:10.533Z,7.67
2018-01-03T08:24:10.559Z,7.70
2018-01-03T08:25:10.572Z,7.77
2018-01-03T08:26:10.598Z,7.74
2018-01-03T08:27:10.612Z,7.78
2018-01-03T08:28:10.636Z,7.75
2018-01-03T08:29:10.650Z,7.88
2018-01-03T08:30:10.676Z,7.86
2018-01-03T08:31:10.690Z,7.89
2018-01-03T08:32:10.709Z,7.96
2018-01-03T08:33:10.734Z,7.80
2018-01-03T08:34:10.755Z,7.88
2018-01-03T08:35:10.768Z,7.91
2018-01-03T08:36:10.786Z,7.83
2018-01-03T08:37:10.812Z,7.92
2018-01-03T08:38:10.826Z,7.83
2018-01-03T08:39:10.850Z,7.88
2018-01-03T08:40:10.869Z,7.91
2018-01-03T08:41:10.890Z,7.83
2018-01-03T08:42:10.904Z,7.86
2018-01-03T08:43:10.922Z,7.95
2018-01-03T08:44:10.948Z,7.98
2018-01-03T08:45:10.962Z,7.99
2018-01-03T08:46:10.982Z,8.06
2018-01-03T08:47:11.006Z,7.98
2018-01-03T08:48:11.024Z,8.04
2018-01-03T08:49:11.039Z,8.06
2018-01-03T08:50:11.060Z,8.06
2018-01-03T08:51:11.084Z,7.99
2018-01-03T08:52:11.104Z,7.89
2018-01-03T08:53:11.117Z,7.98
2018-01-03T08:54:11.148Z,7.83
2018-01-03T08:55:11.156Z,7.82
2018-01-03T08:56:11.176Z,7.85
2018-01-03T08:57:11.196Z,7.80
2018-01-03T08:58:11.221Z,7.82
2018-01-03T08:59:11.241Z,7.77
2018-01-03T09:00:11.255Z,7.68
2018-01-03T09:01:11.280Z,7.73
2018-01-03T09:02:11.295Z,7.70
2018-01-03T09:03:11.319Z,7.78
2018-01-03T09:04:11.337Z,7.78
2018-01-03T09:05:11.358Z,7.86
2018-01-03T09:06:11.374Z,7.83
2018-01-03T09:07:11.396Z,7.95
2018-01-03T09:08:11.411Z,8.01
2018-01-03T09:09:11.439Z,7.98
2018-01-03T09:10:11.457Z,7.82
2018-01-03T09:11:11.470Z,7.89
2018-01-03T09:12:11.498Z,7.85
2018-01-03T09:13:11.518Z,7.91
2018-01-03T09:14:11.535Z,7.98
2018-01-03T09:15:11.553Z,8.03
2018-01-03T09:16:11.574Z,8.24
2018-01-03T09:17:11.590Z,8.17
2018-01-03T09:18:11.614Z,8.01
2018-01-03T09:19:11.627Z,7.96
2018-01-03T09:20:11.658Z,8.01
2018-01-03T09:21:11.667Z,7.99
2018-01-03T09:22:11.692Z,8.04
2018-01-03T09:23:11.705Z,8.04
2018-01-03T09:24:11.732Z,8.04
2018-01-03T09:25:11.745Z,8.04
2018-01-03T09:26:11.766Z,8.13
2018-01-03T09:27:11.790Z,8.13
2018-01-03T09:28:11.805Z,8.03
2018-01-03T09:29:11.825Z,8.04
2018-01-03T09:30:11.845Z,8.04
2018-01-03T09:31:11.863Z,8.14
2018-01-03T09:32:11.884Z,8.14
2018-01-03T09:33:11.910Z,8.35
2018-01-03T09:34:11.925Z,8.83
2018-01-03T09:35:11.950Z,8.57
2018-01-03T09:36:11.968Z,8.40
2018-01-03T09:37:11.983Z,8.34
2018-01-03T09:38:12.004Z,8.32
2018-01-03T09:39:12.028Z,8.34
2018-01-03T09:40:12.048Z,8.28
2018-01-03T09:41:12.063Z,8.52
2018-01-03T09:42:12.089Z,8.54
2018-01-03T09:43:12.101Z,8.52
2018-01-03T09:44:12.121Z,8.54
2018-01-03T09:45:12.147Z,8.46
2018-01-03T09:46:12.168Z,8.61
2018-01-03T09:47:12.183Z,8.58
2018-01-03T09:48:12.207Z,8.77
2018-01-03T09:49:12.227Z,8.79
2018-01-03T09:50:12.252Z,8.62
2018-01-03T09:51:12.266Z,8.58
2018-01-03T09:52:12.283Z,8.79
2018-01-03T09:53:12.307Z,8.87
2018-01-03T09:54:12.329Z,8.94
2018-01-03T09:55:12.349Z,9.05
2018-01-03T09:56:12.362Z,9.05
2018-01-03T09:57:12.388Z,9.01
2018-01-03T09:58:12.408Z,8.82
2018-01-03T09:59:12.428Z,8.69
2018-01-03T10:00:12.444Z,8.57
2018-01-03T10:01:12.463Z,8.61
2018-01-03T10:02:12.483Z,8.62
2018-01-03T10:03:12.510Z,8.65
2018-01-03T10:04:12.524Z,8.58
2018-01-03T10:05:12.551Z,8.62
2018-01-03T10:06:12.571Z,8.57
2018-01-03T10:07:12.585Z,8.62
2018-01-03T10:08:12.612Z,8.69
2018-01-03T10:09:12.627Z,8.67
2018-01-03T10:10:12.653Z,8.71
2018-01-03T10:11:12.667Z,8.72
2018-01-03T10:12:12.693Z,8.90
2018-01-03T10:13:12.711Z,8.92
2018-01-03T10:14:12.732Z,8.94
2018-01-03T10:15:12.747Z,8.90
2018-01-03T10:16:12.773Z,9.00
2018-01-03T10:17:12.795Z,9.04
2018-01-03T10:18:12.818Z,9.09
2018-01-03T10:19:12.835Z,9.04
2018-01-03T10:20:12.854Z,8.95
2018-01-03T10:21:12.869Z,9.01
2018-01-03T10:22:12.889Z,9.08
2018-01-03T10:23:12.914Z,8.98
2018-01-03T10:24:12.936Z,9.04
2018-01-03T10:25:12.950Z,9.12
2018-01-03T10:26:12.970Z,9.03
2018-01-03T10:27:12.996Z,9.03
2018-01-03T10:28:13.017Z,8.90
2018-01-03T10:29:13.031Z,8.94
2018-01-03T10:30:13.053Z,8.90
2018-01-03T10:31:13.077Z,8.90
2018-01-03T10:32:13.092Z,8.92
2018-01-03T10:33:13.112Z,8.86
2018-01-03T10:34:13.132Z,8.94
2018-01-03T10:35:13.152Z,8.97
2018-01-03T10:36:13.176Z,8.95
2018-01-03T10:37:13.199Z,9.12
2018-01-03T10:38:13.219Z,8.95
2018-01-03T10:39:13.235Z,9.04
2018-01-03T10:40:13.253Z,8.95
2018-01-03T10:41:13.279Z,8.98
2018-01-03T10:42:13.302Z,8.94
2018-01-03T10:43:13.313Z,8.92
2018-01-03T10:44:13.334Z,8.80
2018-01-03T10:45:13.360Z,8.79
2018-01-03T10:46:13.375Z,8.83
2018-01-03T10:47:13.399Z,8.79
2018-01-03T10:48:13.414Z,8.74
2018-01-03T10:49:13.437Z,8.71
2018-01-03T10:50:13.463Z,8.76
2018-01-03T10:51:13.480Z,8.68
2018-01-03T10:52:13.553Z,8.53
2018-01-03T10:53:13.515Z,8.49
2018-01-03T10:54:13.542Z,8.53
2018-01-03T10:55:13.556Z,8.46
2018-01-03T10:56:13.582Z,8.32
2018-01-03T10:57:13.595Z,8.25
2018-01-03T10:58:13.622Z,8.24
2018-01-03T10:59:13.634Z,8.26
2018-01-03T11:00:13.662Z,8.17
2018-01-03T11:01:13.676Z,8.21
2018-01-03T11:02:13.703Z,8.03
2018-01-03T11:03:13.721Z,8.03
2018-01-03T11:04:13.741Z,8.04
2018-01-03T11:05:13.762Z,7.86
2018-01-03T11:06:13.780Z,7.85
2018-01-03T11:07:13.795Z,7.78
2018-01-03T11:08:13.814Z,7.67
2018-01-03T11:09:13.841Z,7.61
2018-01-03T11:10:13.855Z,7.61
2018-01-03T11:11:13.879Z,7.55
2018-01-03T11:12:13.894Z,7.55
2018-01-03T11:13:13.919Z,7.52
2018-01-03T11:14:13.933Z,7.40
2018-01-03T11:15:13.958Z,7.34
2018-01-03T11:16:13.971Z,7.29
2018-01-03T11:17:13.998Z,7.30
2018-01-03T11:18:14.069Z,7.29
2018-01-03T11:19:14.033Z,7.19
2018-01-03T11:20:14.049Z,7.22
2018-01-03T11:21:14.075Z,7.22
2018-01-03T11:22:14.092Z,7.18
2018-01-03T11:23:14.113Z,7.16
2018-01-03T11:24:14.127Z,7.21
2018-01-03T11:25:14.149Z,7.21
2018-01-03T11:26:14.172Z,7.15
2018-01-03T11:27:14.184Z,7.15
2018-01-03T11:28:14.204Z,7.09
2018-01-03T11:29:14.229Z,7.08
2018-01-03T11:30:14.249Z,7.08
2018-01-03T11:31:14.262Z,7.04
2018-01-03T11:32:14.283Z,7.04
2018-01-03T11:33:14.306Z,7.01
2018-01-03T11:34:14.325Z,6.95
2018-01-03T11:35:14.343Z,6.97
2018-01-03T11:36:14.357Z,7.03
2018-01-03T11:37:14.381Z,7.00
2018-01-03T11:38:14.401Z,6.98
2018-01-03T11:39:14.413Z,7.00
2018-01-03T11:40:14.433Z,6.95
2018-01-03T11:41:14.453Z,6.95
2018-01-03T11:42:14.478Z,7.05
2018-01-03T11:43:14.490Z,6.97
2018-01-03T11:44:14.510Z,7.03
2018-01-03T11:45:14.534Z,7.00
2018-01-03T11:46:14.553Z,6.94
2018-01-03T11:47:14.565Z,7.01
2018-01-03T11:48:14.584Z,6.93
2018-01-03T11:49:14.610Z,6.95
2018-01-03T11:50:14.623Z,6.93
2018-01-03T11:51:14.642Z,6.91
2018-01-03T11:52:14.668Z,6.91
2018-01-03T11:53:14.681Z,6.83
2018-01-03T11:54:14.698Z,6.83
2018-01-03T11:55:14.723Z,6.91
2018-01-03T11:56:14.741Z,6.78
2018-01-03T11:57:14.760Z,6.86
2018-01-03T11:58:14.780Z,6.86
2018-01-03T11:59:14.792Z,6.91
2018-01-03T12:00:14.817Z,6.82
2018-01-03T12:01:14.832Z,6.85
2018-01-03T12:02:14.853Z,6.88
2018-01-03T12:03:14.867Z,6.80
2018-01-03T12:04:14.892Z,6.86
2018-01-03T12:05:14.906Z,6.86
2018-01-03T12:06:14.929Z,6.85
2018-01-03T12:07:15.003Z,6.79
2018-01-03T12:08:14.961Z,6.88
2018-01-03T12:09:14.985Z,6.91
2018-01-03T12:10:15.013Z,6.93
2018-01-03T12:11:15.018Z,6.88
2018-01-03T12:12:15.036Z,6.79
2018-01-03T12:13:15.055Z,6.80
2018-01-03T12:14:15.073Z,6.83
2018-01-03T12:15:15.100Z,6.88
2018-01-03T12:16:15.110Z,6.93
2018-01-03T12:17:15.135Z,6.83
2018-01-03T12:18:15.148Z,6.76
2018-01-03T12:19:15.174Z,6.94
2018-01-03T12:20:15.185Z,6.85
2018-01-03T12:21:15.210Z,6.82
2018-01-03T12:22:15.229Z,6.90
2018-01-03T12:23:15.245Z,6.86
2018-01-03T12:24:15.265Z,6.90
2018-01-03T12:25:15.278Z,6.94
2018-01-03T12:26:15.303Z,6.94
2018-01-03T12:27:15.315Z,6.94
2018-01-03T12:28:15.340Z,6.80
2018-01-03T12:29:15.358Z,6.80
2018-01-03T12:30:15.378Z,6.90
2018-01-03T12:31:15.389Z,6.97
2018-01-03T12:32:15.408Z,7.00
2018-01-03T12:33:15.433Z,6.98
2018-01-03T12:34:15.452Z,7.01
2018-01-03T12:35:15.467Z,7.01
2018-01-03T12:36:15.497Z,7.11
2018-01-03T12:37:15.511Z,7.01
2018-01-03T12:38:15.520Z,7.09
2018-01-03T12:39:15.540Z,7.08
2018-01-03T12:40:15.559Z,7.09
2018-01-03T12:41:15.583Z,7.08
2018-01-03T12:42:15.600Z,6.98
2018-01-03T12:43:15.618Z,7.04
2018-01-03T12:44:15.632Z,7.00
2018-01-03T12:45:15.652Z,7.03
2018-01-03T12:46:15.672Z,7.08
2018-01-03T12:47:15.701Z,7.05
2018-01-03T12:48:15.713Z,7.04
2018-01-03T12:49:15.736Z,7.13
2018-01-03T12:50:15.745Z,7.09
2018-01-03T12:51:15.772Z,7.11
2018-01-03T12:52:15.790Z,7.11
2018-01-03T12:53:15.802Z,7.15
2018-01-03T12:54:15.820Z,7.22
2018-01-03T12:55:15.844Z,7.26
2018-01-03T12:56:15.864Z,7.15
2018-01-03T12:57:15.877Z,7.12
2018-01-03T12:58:15.896Z,7.21
2018-01-03T12:59:15.919Z,7.12
2018-01-03T13:00:15.939Z,7.16
2018-01-03T13:01:15.952Z,7.22
2018-01-03T13:02:15.974Z,7.16
2018-01-03T13:03:15.988Z,7.16
2018-01-03T13:04:16.013Z,7.13
2018-01-03T13:05:16.065Z,7.18
2018-01-03T13:06:16.050Z,7.18
2018-01-03T13:07:16.061Z,7.23
2018-01-03T13:08:16.086Z,7.15
2018-01-03T13:09:16.102Z,7.22
2018-01-03T13:10:16.126Z,7.26
2018-01-03T13:11:16.138Z,7.23
2018-01-03T13:12:16.163Z,7.23
2018-01-03T13:13:16.175Z,7.23
2018-01-03T13:14:16.202Z,7.18